sensor_id;sensor_type;location;lat;lon;timestamp;pressure;altitude;pressure_sealevel;temperature;humidity
69153;BME280;56261;51.580;4.578;2022-08-01T00:01:33;101835.03;;;19.47;100.00
69153;BME280;56261;51.580;4.578;2022-08-01T00:03:58;101833.13;;;19.41;100.00
69153;BME280;56261;51.580;4.578;2022-08-01T00:06:24;101833.75;;;19.43;100.00
69153;BME280;56261;51.580;4.578;2022-08-01T00:08:49;101836.66;;;19.41;100.00
69153;BME280;56261;51.580;4.578;2022-08-01T00:11:14;101837.91;;;19.45;100.00
69153;BME280;56261;51.580;4.578;2022-08-01T00:13:40;101834.38;;;19.45;100.00
69153;BME280;56261;51.580;4.578;2022-08-01T00:16:06;101835.38;;;19.37;100.00
69153;BME280;56261;51.580;4.578;2022-08-01T00:18:31;101835.59;;;19.29;100.00
69153;BME280;56261;51.580;4.578;2022-08-01T00:20:56;101849.94;;;19.29;100.00
69153;BME280;56261;51.580;4.578;2022-08-01T00:23:22;101849.47;;;19.19;100.00
69153;BME280;56261;51.580;4.578;2022-08-01T00:25:47;101849.91;;;19.16;100.00
69153;BME280;56261;51.580;4.578;2022-08-01T00:28:13;101843.25;;;19.19;100.00
69153;BME280;56261;51.580;4.578;2022-08-01T00:30:39;101860.50;;;19.18;100.00
69153;BME280;56261;51.580;4.578;2022-08-01T00:33:04;101853.84;;;19.14;100.00
69153;BME280;56261;51.580;4.578;2022-08-01T00:35:30;101853.41;;;19.10;100.00
69153;BME280;56261;51.580;4.578;2022-08-01T00:37:55;101860.31;;;19.26;100.00
69153;BME280;56261;51.580;4.578;2022-08-01T00:40:21;101859.28;;;19.20;100.00
69153;BME280;56261;51.580;4.578;2022-08-01T00:42:46;101856.09;;;19.10;100.00
69153;BME280;56261;51.580;4.578;2022-08-01T00:45:12;101855.91;;;19.12;100.00
69153;BME280;56261;51.580;4.578;2022-08-01T00:47:38;101846.56;;;19.14;100.00
69153;BME280;56261;51.580;4.578;2022-08-01T00:50:04;101841.97;;;19.15;100.00
69153;BME280;56261;51.580;4.578;2022-08-01T00:52:30;101842.75;;;19.02;100.00
69153;BME280;56261;51.580;4.578;2022-08-01T00:54:56;101845.94;;;19.19;100.00
69153;BME280;56261;51.580;4.578;2022-08-01T00:57:21;101848.19;;;19.08;100.00
69153;BME280;56261;51.580;4.578;2022-08-01T00:59:47;101839.66;;;19.05;100.00
69153;BME280;56261;51.580;4.578;2022-08-01T01:02:12;101853.19;;;19.05;100.00
69153;BME280;56261;51.580;4.578;2022-08-01T01:04:38;101849.16;;;18.94;100.00
69153;BME280;56261;51.580;4.578;2022-08-01T01:07:09;101848.56;;;18.99;100.00
69153;BME280;56261;51.580;4.578;2022-08-01T01:10:37;101851.44;;;18.91;100.00
69153;BME280;56261;51.580;4.578;2022-08-01T01:12:54;101847.03;;;18.83;100.00
69153;BME280;56261;51.580;4.578;2022-08-01T01:15:46;101848.47;;;18.79;100.00
69153;BME280;56261;51.580;4.578;2022-08-01T01:18:20;101842.78;;;18.74;100.00
69153;BME280;56261;51.580;4.578;2022-08-01T01:21:00;101845.38;;;18.88;100.00
69153;BME280;56261;51.580;4.578;2022-08-01T01:26:52;101841.81;;;18.81;100.00
69153;BME280;56261;51.580;4.578;2022-08-01T01:29:29;101846.50;;;18.73;100.00
69153;BME280;56261;51.580;4.578;2022-08-01T01:32:08;101844.38;;;18.90;100.00
69153;BME280;56261;51.580;4.578;2022-08-01T01:34:40;101841.81;;;18.81;100.00
69153;BME280;56261;51.580;4.578;2022-08-01T01:37:10;101843.44;;;18.76;100.00
69153;BME280;56261;51.580;4.578;2022-08-01T01:39:38;101841.75;;;18.75;100.00
69153;BME280;56261;51.580;4.578;2022-08-01T01:42:06;101856.41;;;18.87;100.00
69153;BME280;56261;51.580;4.578;2022-08-01T01:44:32;101840.38;;;18.85;100.00
69153;BME280;56261;51.580;4.578;2022-08-01T01:46:59;101840.41;;;18.92;100.00
69153;BME280;56261;51.580;4.578;2022-08-01T01:49:27;101839.78;;;18.90;100.00
69153;BME280;56261;51.580;4.578;2022-08-01T01:51:56;101853.25;;;18.83;100.00
69153;BME280;56261;51.580;4.578;2022-08-01T01:54:24;101856.00;;;18.90;100.00
69153;BME280;56261;51.580;4.578;2022-08-01T01:56:55;101850.78;;;18.88;100.00
69153;BME280;56261;51.580;4.578;2022-08-01T01:59:25;101848.31;;;18.87;100.00
69153;BME280;56261;51.580;4.578;2022-08-01T02:01:53;101830.03;;;18.89;100.00
69153;BME280;56261;51.580;4.578;2022-08-01T02:04:21;101820.59;;;18.78;100.00
69153;BME280;56261;51.580;4.578;2022-08-01T02:06:50;101825.31;;;18.70;100.00
69153;BME280;56261;51.580;4.578;2022-08-01T02:09:18;101834.53;;;18.47;100.00
69153;BME280;56261;51.580;4.578;2022-08-01T02:11:48;101829.13;;;18.47;100.00
69153;BME280;56261;51.580;4.578;2022-08-01T02:14:17;101832.16;;;18.37;100.00
69153;BME280;56261;51.580;4.578;2022-08-01T02:16:46;101831.22;;;18.52;100.00
69153;BME280;56261;51.580;4.578;2022-08-01T02:19:12;101829.75;;;18.49;100.00
69153;BME280;56261;51.580;4.578;2022-08-01T02:21:48;101826.47;;;18.54;100.00
69153;BME280;56261;51.580;4.578;2022-08-01T02:27:14;101831.63;;;18.49;100.00
69153;BME280;56261;51.580;4.578;2022-08-01T02:29:43;101823.91;;;18.45;100.00
69153;BME280;56261;51.580;4.578;2022-08-01T02:32:20;101829.66;;;18.36;100.00
69153;BME280;56261;51.580;4.578;2022-08-01T02:34:49;101838.72;;;18.28;100.00
69153;BME280;56261;51.580;4.578;2022-08-01T02:37:17;101833.78;;;18.32;100.00
69153;BME280;56261;51.580;4.578;2022-08-01T02:39:45;101842.25;;;18.22;100.00
69153;BME280;56261;51.580;4.578;2022-08-01T02:42:14;101846.47;;;18.31;100.00
69153;BME280;56261;51.580;4.578;2022-08-01T02:44:41;101849.16;;;18.31;100.00
69153;BME280;56261;51.580;4.578;2022-08-01T02:47:08;101839.69;;;18.42;100.00
69153;BME280;56261;51.580;4.578;2022-08-01T02:49:39;101837.81;;;18.42;100.00
69153;BME280;56261;51.580;4.578;2022-08-01T02:52:08;101848.63;;;18.42;100.00
69153;BME280;56261;51.580;4.578;2022-08-01T02:54:36;101845.31;;;18.47;100.00
69153;BME280;56261;51.580;4.578;2022-08-01T02:57:04;101854.03;;;18.42;100.00
69153;BME280;56261;51.580;4.578;2022-08-01T02:59:31;101846.47;;;18.31;100.00
69153;BME280;56261;51.580;4.578;2022-08-01T03:02:00;101847.28;;;18.32;100.00
69153;BME280;56261;51.580;4.578;2022-08-01T03:04:27;101843.13;;;18.29;100.00
69153;BME280;56261;51.580;4.578;2022-08-01T03:06:54;101848.13;;;18.32;100.00
69153;BME280;56261;51.580;4.578;2022-08-01T03:09:20;101855.34;;;18.25;100.00
69153;BME280;56261;51.580;4.578;2022-08-01T03:11:48;101855.94;;;18.20;100.00
69153;BME280;56261;51.580;4.578;2022-08-01T03:14:15;101854.47;;;18.18;100.00
69153;BME280;56261;51.580;4.578;2022-08-01T03:16:42;101839.88;;;18.12;100.00
69153;BME280;56261;51.580;4.578;2022-08-01T03:19:11;101849.69;;;18.20;100.00
69153;BME280;56261;51.580;4.578;2022-08-01T03:21:39;101860.03;;;18.16;100.00
69153;BME280;56261;51.580;4.578;2022-08-01T03:24:06;101863.19;;;18.20;100.00
69153;BME280;56261;51.580;4.578;2022-08-01T03:26:34;101864.69;;;18.22;100.00
69153;BME280;56261;51.580;4.578;2022-08-01T03:29:06;101864.84;;;18.21;100.00
69153;BME280;56261;51.580;4.578;2022-08-01T03:31:34;101861.44;;;18.34;100.00
69153;BME280;56261;51.580;4.578;2022-08-01T03:34:01;101861.75;;;18.24;100.00
69153;BME280;56261;51.580;4.578;2022-08-01T03:36:28;101865.97;;;18.27;100.00
69153;BME280;56261;51.580;4.578;2022-08-01T03:38:56;101861.75;;;18.24;100.00
69153;BME280;56261;51.580;4.578;2022-08-01T03:41:24;101859.47;;;18.21;100.00
69153;BME280;56261;51.580;4.578;2022-08-01T03:44:07;101861.38;;;18.27;100.00
69153;BME280;56261;51.580;4.578;2022-08-01T03:46:42;101865.50;;;18.23;100.00
69153;BME280;56261;51.580;4.578;2022-08-01T03:49:14;101866.00;;;18.33;100.00
69153;BME280;56261;51.580;4.578;2022-08-01T03:51:44;101855.78;;;18.29;100.00
69153;BME280;56261;51.580;4.578;2022-08-01T03:54:10;101845.31;;;18.19;100.00
69153;BME280;56261;51.580;4.578;2022-08-01T03:56:38;101859.75;;;18.33;100.00
69153;BME280;56261;51.580;4.578;2022-08-01T03:59:04;101843.75;;;18.31;100.00
69153;BME280;56261;51.580;4.578;2022-08-01T04:01:31;101850.69;;;18.40;100.00
69153;BME280;56261;51.580;4.578;2022-08-01T04:04:00;101849.81;;;18.33;100.00
69153;BME280;56261;51.580;4.578;2022-08-01T04:06:26;101863.31;;;18.33;100.00
69153;BME280;56261;51.580;4.578;2022-08-01T04:08:52;101869.34;;;18.35;100.00
69153;BME280;56261;51.580;4.578;2022-08-01T04:11:23;101857.97;;;18.40;100.00
69153;BME280;56261;51.580;4.578;2022-08-01T04:13:49;101867.84;;;18.33;100.00
69153;BME280;56261;51.580;4.578;2022-08-01T04:16:14;101858.75;;;18.34;100.00
69153;BME280;56261;51.580;4.578;2022-08-01T04:18:39;101861.09;;;18.43;100.00
69153;BME280;56261;51.580;4.578;2022-08-01T04:21:05;101865.84;;;18.41;100.00
69153;BME280;56261;51.580;4.578;2022-08-01T04:23:30;101864.44;;;18.45;100.00
69153;BME280;56261;51.580;4.578;2022-08-01T04:25:59;101876.19;;;18.31;100.00
69153;BME280;56261;51.580;4.578;2022-08-01T04:28:25;101874.34;;;18.38;100.00
69153;BME280;56261;51.580;4.578;2022-08-01T04:30:54;101870.38;;;18.34;100.00
69153;BME280;56261;51.580;4.578;2022-08-01T04:33:20;101875.53;;;18.29;100.00
69153;BME280;56261;51.580;4.578;2022-08-01T04:35:47;101877.59;;;18.27;100.00
69153;BME280;56261;51.580;4.578;2022-08-01T04:38:20;101881.94;;;18.28;100.00
69153;BME280;56261;51.580;4.578;2022-08-01T04:40:46;101879.75;;;18.38;100.00
69153;BME280;56261;51.580;4.578;2022-08-01T04:43:14;101884.66;;;18.28;100.00
69153;BME280;56261;51.580;4.578;2022-08-01T04:45:40;101894.09;;;18.39;100.00
69153;BME280;56261;51.580;4.578;2022-08-01T04:48:06;101888.56;;;18.47;100.00
69153;BME280;56261;51.580;4.578;2022-08-01T04:50:32;101890.81;;;18.43;100.00
69153;BME280;56261;51.580;4.578;2022-08-01T04:52:59;101896.19;;;18.43;100.00
69153;BME280;56261;51.580;4.578;2022-08-01T04:55:28;101904.06;;;18.38;100.00
69153;BME280;56261;51.580;4.578;2022-08-01T04:57:53;101902.66;;;18.42;100.00
69153;BME280;56261;51.580;4.578;2022-08-01T05:00:19;101901.47;;;18.52;100.00
69153;BME280;56261;51.580;4.578;2022-08-01T05:02:44;101901.91;;;18.55;100.00
69153;BME280;56261;51.580;4.578;2022-08-01T05:05:10;101903.81;;;18.61;100.00
69153;BME280;56261;51.580;4.578;2022-08-01T05:07:35;101892.22;;;18.67;100.00
69153;BME280;56261;51.580;4.578;2022-08-01T05:10:03;101895.75;;;18.68;100.00
69153;BME280;56261;51.580;4.578;2022-08-01T05:12:28;101885.31;;;18.58;100.00
69153;BME280;56261;51.580;4.578;2022-08-01T05:14:54;101885.41;;;18.72;100.00
69153;BME280;56261;51.580;4.578;2022-08-01T05:17:19;101888.19;;;18.78;100.00
69153;BME280;56261;51.580;4.578;2022-08-01T05:19:45;101879.66;;;18.81;100.00
69153;BME280;56261;51.580;4.578;2022-08-01T05:22:10;101887.69;;;18.75;100.00
69153;BME280;56261;51.580;4.578;2022-08-01T05:24:38;101879.34;;;18.70;99.77
69153;BME280;56261;51.580;4.578;2022-08-01T05:27:04;101886.22;;;18.72;100.00
69153;BME280;56261;51.580;4.578;2022-08-01T05:29:29;101883.81;;;18.84;99.75
69153;BME280;56261;51.580;4.578;2022-08-01T05:31:55;101877.09;;;18.73;99.19
69153;BME280;56261;51.580;4.578;2022-08-01T05:34:21;101879.16;;;18.71;99.24
69153;BME280;56261;51.580;4.578;2022-08-01T05:36:46;101890.16;;;18.70;99.45
69153;BME280;56261;51.580;4.578;2022-08-01T05:39:12;101884.94;;;18.68;99.11
69153;BME280;56261;51.580;4.578;2022-08-01T05:41:38;101889.53;;;18.67;99.40
69153;BME280;56261;51.580;4.578;2022-08-01T05:44:04;101885.34;;;18.65;99.28
69153;BME280;56261;51.580;4.578;2022-08-01T05:46:30;101888.25;;;18.63;98.92
69153;BME280;56261;51.580;4.578;2022-08-01T05:48:57;101889.66;;;18.81;98.59
69153;BME280;56261;51.580;4.578;2022-08-01T05:51:23;101887.63;;;18.90;98.05
69153;BME280;56261;51.580;4.578;2022-08-01T05:53:49;101882.91;;;19.05;97.47
69153;BME280;56261;51.580;4.578;2022-08-01T05:56:14;101886.03;;;19.08;96.57
69153;BME280;56261;51.580;4.578;2022-08-01T05:58:40;101877.06;;;19.01;96.92
69153;BME280;56261;51.580;4.578;2022-08-01T06:01:05;101879.63;;;19.10;97.11
69153;BME280;56261;51.580;4.578;2022-08-01T06:03:31;101878.53;;;19.04;96.13
69153;BME280;56261;51.580;4.578;2022-08-01T06:05:58;101882.06;;;18.98;96.45
69153;BME280;56261;51.580;4.578;2022-08-01T06:08:24;101890.25;;;19.11;96.68
69153;BME280;56261;51.580;4.578;2022-08-01T06:10:49;101885.50;;;19.26;96.21
69153;BME280;56261;51.580;4.578;2022-08-01T06:13:15;101888.25;;;19.40;96.53
69153;BME280;56261;51.580;4.578;2022-08-01T06:15:40;101888.69;;;19.43;95.41
69153;BME280;56261;51.580;4.578;2022-08-01T06:18:05;101890.56;;;19.43;94.89
69153;BME280;56261;51.580;4.578;2022-08-01T06:20:31;101886.19;;;19.42;94.50
69153;BME280;56261;51.580;4.578;2022-08-01T06:22:56;101892.88;;;19.53;94.70
69153;BME280;56261;51.580;4.578;2022-08-01T06:25:22;101895.72;;;19.99;93.64
69153;BME280;56261;51.580;4.578;2022-08-01T06:27:48;101886.56;;;20.27;91.63
69153;BME280;56261;51.580;4.578;2022-08-01T06:30:13;101885.13;;;20.38;89.21
69153;BME280;56261;51.580;4.578;2022-08-01T06:32:38;101876.53;;;20.81;87.82
69153;BME280;56261;51.580;4.578;2022-08-01T06:35:04;101885.53;;;20.35;87.00
69153;BME280;56261;51.580;4.578;2022-08-01T06:37:31;101880.28;;;20.86;86.52
69153;BME280;56261;51.580;4.578;2022-08-01T06:40:04;101870.06;;;20.88;85.16
69153;BME280;56261;51.580;4.578;2022-08-01T06:42:29;101881.91;;;20.94;84.17
69153;BME280;56261;51.580;4.578;2022-08-01T06:45:04;101887.81;;;21.36;84.11
69153;BME280;56261;51.580;4.578;2022-08-01T06:47:29;101887.41;;;21.39;80.57
69153;BME280;56261;51.580;4.578;2022-08-01T06:49:55;101892.78;;;21.91;80.07
69153;BME280;56261;51.580;4.578;2022-08-01T06:52:20;101885.19;;;21.61;79.56
69153;BME280;56261;51.580;4.578;2022-08-01T06:54:45;101906.13;;;21.54;80.72
69153;BME280;56261;51.580;4.578;2022-08-01T06:57:11;101902.41;;;21.48;79.64
69153;BME280;56261;51.580;4.578;2022-08-01T06:59:36;101901.94;;;21.58;80.63
69153;BME280;56261;51.580;4.578;2022-08-01T07:02:02;101898.56;;;21.63;80.38
69153;BME280;56261;51.580;4.578;2022-08-01T07:04:27;101909.22;;;21.12;83.26
69153;BME280;56261;51.580;4.578;2022-08-01T07:06:53;101900.41;;;21.24;83.07
69153;BME280;56261;51.580;4.578;2022-08-01T07:09:18;101920.53;;;20.76;85.52
69153;BME280;56261;51.580;4.578;2022-08-01T07:11:43;101914.09;;;20.70;85.52
69153;BME280;56261;51.580;4.578;2022-08-01T07:14:09;101918.06;;;20.68;85.82
69153;BME280;56261;51.580;4.578;2022-08-01T07:16:35;101922.22;;;20.44;86.30
69153;BME280;56261;51.580;4.578;2022-08-01T07:19:00;101919.09;;;20.60;85.99
69153;BME280;56261;51.580;4.578;2022-08-01T07:21:25;101918.25;;;20.80;85.85
69153;BME280;56261;51.580;4.578;2022-08-01T07:23:51;101910.50;;;21.03;84.31
69153;BME280;56261;51.580;4.578;2022-08-01T07:26:16;101918.75;;;21.42;83.48
69153;BME280;56261;51.580;4.578;2022-08-01T07:28:42;101915.59;;;21.31;83.24
69153;BME280;56261;51.580;4.578;2022-08-01T07:31:08;101909.69;;;21.93;78.55
69153;BME280;56261;51.580;4.578;2022-08-01T07:33:33;101908.72;;;22.63;76.96
69153;BME280;56261;51.580;4.578;2022-08-01T07:35:58;101910.56;;;22.44;75.54
69153;BME280;56261;51.580;4.578;2022-08-01T07:38:24;101893.44;;;23.24;73.96
69153;BME280;56261;51.580;4.578;2022-08-01T07:40:49;101899.63;;;23.12;72.92
69153;BME280;56261;51.580;4.578;2022-08-01T07:43:15;101909.84;;;21.98;75.32
69153;BME280;56261;51.580;4.578;2022-08-01T07:45:41;101906.16;;;21.47;77.99
69153;BME280;56261;51.580;4.578;2022-08-01T07:48:07;101905.25;;;21.67;77.87
69153;BME280;56261;51.580;4.578;2022-08-01T07:50:33;101914.75;;;21.83;79.22
69153;BME280;56261;51.580;4.578;2022-08-01T07:52:59;101912.91;;;22.40;77.12
69153;BME280;56261;51.580;4.578;2022-08-01T07:55:25;101916.81;;;21.87;77.22
69153;BME280;56261;51.580;4.578;2022-08-01T07:57:51;101917.63;;;21.56;78.31
69153;BME280;56261;51.580;4.578;2022-08-01T08:00:17;101924.22;;;21.22;79.08
69153;BME280;56261;51.580;4.578;2022-08-01T08:02:43;101929.53;;;20.83;81.78
69153;BME280;56261;51.580;4.578;2022-08-01T08:05:10;101919.06;;;20.87;81.63
69153;BME280;56261;51.580;4.578;2022-08-01T08:07:35;101927.06;;;21.33;80.58
69153;BME280;56261;51.580;4.578;2022-08-01T08:10:00;101928.41;;;22.01;79.91
69153;BME280;56261;51.580;4.578;2022-08-01T08:12:26;101921.50;;;22.05;78.37
69153;BME280;56261;51.580;4.578;2022-08-01T08:14:51;101925.00;;;22.12;77.84
69153;BME280;56261;51.580;4.578;2022-08-01T08:17:17;101916.66;;;22.64;75.45
69153;BME280;56261;51.580;4.578;2022-08-01T08:19:42;101929.84;;;22.42;75.63
69153;BME280;56261;51.580;4.578;2022-08-01T08:22:08;101926.81;;;22.50;75.23
69153;BME280;56261;51.580;4.578;2022-08-01T08:24:35;101927.63;;;22.57;74.90
69153;BME280;56261;51.580;4.578;2022-08-01T08:27:01;101935.66;;;22.14;77.38
69153;BME280;56261;51.580;4.578;2022-08-01T08:29:28;101937.22;;;22.60;75.42
69153;BME280;56261;51.580;4.578;2022-08-01T08:31:55;101924.13;;;23.49;72.21
69153;BME280;56261;51.580;4.578;2022-08-01T08:34:22;101933.28;;;23.85;71.17
69153;BME280;56261;51.580;4.578;2022-08-01T08:36:48;101923.50;;;23.96;68.23
69153;BME280;56261;51.580;4.578;2022-08-01T08:39:14;101943.97;;;22.76;69.57
69153;BME280;56261;51.580;4.578;2022-08-01T08:41:41;101940.97;;;22.59;71.74
69153;BME280;56261;51.580;4.578;2022-08-01T08:44:08;101951.75;;;22.47;71.32
69153;BME280;56261;51.580;4.578;2022-08-01T08:46:44;101949.47;;;22.69;71.77
69153;BME280;56261;51.580;4.578;2022-08-01T08:49:12;101950.66;;;23.17;69.53
69153;BME280;56261;51.580;4.578;2022-08-01T08:51:39;101956.72;;;22.50;70.84
69153;BME280;56261;51.580;4.578;2022-08-01T08:54:06;101961.47;;;21.98;72.27
69153;BME280;56261;51.580;4.578;2022-08-01T08:56:34;101959.09;;;21.70;74.07
69153;BME280;56261;51.580;4.578;2022-08-01T08:59:01;101953.59;;;21.31;75.23
69153;BME280;56261;51.580;4.578;2022-08-01T09:01:27;101964.50;;;21.18;76.40
69153;BME280;56261;51.580;4.578;2022-08-01T09:03:53;101963.47;;;21.12;77.23
69153;BME280;56261;51.580;4.578;2022-08-01T09:06:18;101959.28;;;22.13;75.27
69153;BME280;56261;51.580;4.578;2022-08-01T09:08:44;101959.16;;;23.09;70.15
69153;BME280;56261;51.580;4.578;2022-08-01T09:11:10;101956.22;;;22.85;70.00
69153;BME280;56261;51.580;4.578;2022-08-01T09:13:36;101962.72;;;22.59;69.91
69153;BME280;56261;51.580;4.578;2022-08-01T09:16:01;101955.97;;;23.12;68.42
69153;BME280;56261;51.580;4.578;2022-08-01T09:18:39;101963.72;;;23.63;68.14
69153;BME280;56261;51.580;4.578;2022-08-01T09:23:37;101977.31;;;21.63;76.49
69153;BME280;56261;51.580;4.578;2022-08-01T09:26:18;101999.34;;;21.34;76.90
69153;BME280;56261;51.580;4.578;2022-08-01T09:28:44;101987.56;;;21.99;74.85
69153;BME280;56261;51.580;4.578;2022-08-01T09:31:15;101981.38;;;22.24;72.56
69153;BME280;56261;51.580;4.578;2022-08-01T09:33:57;101985.13;;;22.54;72.87
69153;BME280;56261;51.580;4.578;2022-08-01T09:36:25;101983.53;;;22.47;72.07
69153;BME280;56261;51.580;4.578;2022-08-01T09:38:53;101984.63;;;23.33;70.90
69153;BME280;56261;51.580;4.578;2022-08-01T09:41:31;101974.03;;;24.52;65.92
69153;BME280;56261;51.580;4.578;2022-08-01T09:43:58;101977.13;;;24.14;64.54
69153;BME280;56261;51.580;4.578;2022-08-01T09:46:24;101989.44;;;23.12;68.88
69153;BME280;56261;51.580;4.578;2022-08-01T09:49:02;101990.81;;;22.53;70.94
69153;BME280;56261;51.580;4.578;2022-08-01T09:53:55;101985.38;;;23.77;66.71
69153;BME280;56261;51.580;4.578;2022-08-01T09:56:22;101984.72;;;24.23;64.57
69153;BME280;56261;51.580;4.578;2022-08-01T10:01:16;101979.06;;;23.95;65.89
69153;BME280;56261;51.580;4.578;2022-08-01T10:03:41;101985.00;;;23.55;67.77
69153;BME280;56261;51.580;4.578;2022-08-01T10:06:20;101988.47;;;23.62;68.03
69153;BME280;56261;51.580;4.578;2022-08-01T10:08:47;101998.84;;;22.91;69.55
69153;BME280;56261;51.580;4.578;2022-08-01T10:11:13;101994.75;;;22.82;69.66
69153;BME280;56261;51.580;4.578;2022-08-01T10:13:38;101993.63;;;23.52;68.19
69153;BME280;56261;51.580;4.578;2022-08-01T10:16:05;101982.72;;;23.70;67.21
69153;BME280;56261;51.580;4.578;2022-08-01T10:18:34;101981.59;;;23.59;67.45
69153;BME280;56261;51.580;4.578;2022-08-01T10:21:01;101986.38;;;23.82;66.37
69153;BME280;56261;51.580;4.578;2022-08-01T10:23:31;101990.13;;;23.81;65.08
69153;BME280;56261;51.580;4.578;2022-08-01T10:26:00;101998.00;;;23.34;66.31
69153;BME280;56261;51.580;4.578;2022-08-01T10:28:26;101989.88;;;24.01;64.97
69153;BME280;56261;51.580;4.578;2022-08-01T10:30:54;101992.16;;;24.05;65.49
69153;BME280;56261;51.580;4.578;2022-08-01T10:33:23;102003.63;;;23.76;64.89
69153;BME280;56261;51.580;4.578;2022-08-01T10:35:50;102007.38;;;22.95;68.24
69153;BME280;56261;51.580;4.578;2022-08-01T10:38:16;101994.00;;;23.37;67.35
69153;BME280;56261;51.580;4.578;2022-08-01T10:40:43;102002.25;;;23.30;66.36
69153;BME280;56261;51.580;4.578;2022-08-01T10:43:14;101998.34;;;23.45;66.52
69153;BME280;56261;51.580;4.578;2022-08-01T10:45:42;102006.47;;;23.26;66.54
69153;BME280;56261;51.580;4.578;2022-08-01T10:48:16;102005.97;;;22.67;67.81
69153;BME280;56261;51.580;4.578;2022-08-01T10:50:45;102005.50;;;23.02;67.04
69153;BME280;56261;51.580;4.578;2022-08-01T10:53:18;102015.91;;;22.80;66.83
69153;BME280;56261;51.580;4.578;2022-08-01T10:58:12;101996.72;;;23.55;63.68
69153;BME280;56261;51.580;4.578;2022-08-01T11:00:38;101999.34;;;24.29;63.05
69153;BME280;56261;51.580;4.578;2022-08-01T11:03:04;102006.00;;;23.66;63.25
69153;BME280;56261;51.580;4.578;2022-08-01T11:05:34;102006.25;;;24.13;63.22
69153;BME280;56261;51.580;4.578;2022-08-01T11:08:10;102000.72;;;23.90;62.90
69153;BME280;56261;51.580;4.578;2022-08-01T11:10:42;101998.44;;;23.87;62.43
69153;BME280;56261;51.580;4.578;2022-08-01T11:13:10;102001.06;;;23.45;63.58
69153;BME280;56261;51.580;4.578;2022-08-01T11:15:39;101996.31;;;23.89;63.11
69153;BME280;56261;51.580;4.578;2022-08-01T11:20:58;101995.22;;;23.78;63.23
69153;BME280;56261;51.580;4.578;2022-08-01T11:23:25;102006.91;;;23.05;63.93
69153;BME280;56261;51.580;4.578;2022-08-01T11:28:22;102005.16;;;23.35;62.09
69153;BME280;56261;51.580;4.578;2022-08-01T11:38:39;101995.91;;;24.03;59.71
69153;BME280;56261;51.580;4.578;2022-08-01T11:41:16;102001.13;;;23.75;60.66
69153;BME280;56261;51.580;4.578;2022-08-01T11:54:30;102001.56;;;23.16;62.87
69153;BME280;56261;51.580;4.578;2022-08-01T11:57:00;102004.44;;;23.21;63.20
69153;BME280;56261;51.580;4.578;2022-08-01T11:59:26;102007.69;;;23.30;62.15
69153;BME280;56261;51.580;4.578;2022-08-01T12:01:52;101998.00;;;23.34;62.55
69153;BME280;56261;51.580;4.578;2022-08-01T12:04:18;102004.00;;;23.43;60.78
69153;BME280;56261;51.580;4.578;2022-08-01T12:06:44;102007.22;;;23.70;62.34
69153;BME280;56261;51.580;4.578;2022-08-01T12:09:21;102001.25;;;23.80;61.99
69153;BME280;56261;51.580;4.578;2022-08-01T12:11:47;102001.03;;;23.63;59.97
69153;BME280;56261;51.580;4.578;2022-08-01T12:14:19;102003.16;;;23.79;60.18
69153;BME280;56261;51.580;4.578;2022-08-01T12:16:50;101999.53;;;24.16;60.20
69153;BME280;56261;51.580;4.578;2022-08-01T12:19:21;101990.28;;;24.17;59.33
69153;BME280;56261;51.580;4.578;2022-08-01T12:22:10;102006.41;;;23.88;60.26
69153;BME280;56261;51.580;4.578;2022-08-01T12:24:37;102005.72;;;23.19;60.70
69153;BME280;56261;51.580;4.578;2022-08-01T12:27:04;102016.13;;;23.04;61.70
69153;BME280;56261;51.580;4.578;2022-08-01T12:29:40;102010.06;;;23.02;62.02
69153;BME280;56261;51.580;4.578;2022-08-01T12:32:26;102004.06;;;23.73;61.28
69153;BME280;56261;51.580;4.578;2022-08-01T12:34:53;102001.63;;;23.83;60.45
69153;BME280;56261;51.580;4.578;2022-08-01T12:37:19;101985.13;;;24.09;58.01
69153;BME280;56261;51.580;4.578;2022-08-01T12:39:45;102006.69;;;23.98;57.74
69153;BME280;56261;51.580;4.578;2022-08-01T12:42:12;102003.75;;;23.63;57.40
69153;BME280;56261;51.580;4.578;2022-08-01T12:44:39;101998.94;;;23.95;55.90
69153;BME280;56261;51.580;4.578;2022-08-01T12:47:06;101986.19;;;23.96;57.74
69153;BME280;56261;51.580;4.578;2022-08-01T12:49:35;101991.38;;;23.97;56.18
69153;BME280;56261;51.580;4.578;2022-08-01T12:52:03;101994.38;;;23.59;56.84
69153;BME280;56261;51.580;4.578;2022-08-01T12:54:28;101989.22;;;23.88;57.27
69153;BME280;56261;51.580;4.578;2022-08-01T12:56:54;101988.91;;;23.96;56.27
69153;BME280;56261;51.580;4.578;2022-08-01T12:59:24;101992.91;;;24.23;56.79
69153;BME280;56261;51.580;4.578;2022-08-01T13:01:51;101983.91;;;24.35;55.19
69153;BME280;56261;51.580;4.578;2022-08-01T13:04:17;101971.84;;;24.00;55.92
69153;BME280;56261;51.580;4.578;2022-08-01T13:06:43;101982.59;;;23.47;56.47
69153;BME280;56261;51.580;4.578;2022-08-01T13:09:09;101979.47;;;23.61;55.88
69153;BME280;56261;51.580;4.578;2022-08-01T13:11:36;101969.13;;;24.00;54.61
69153;BME280;56261;51.580;4.578;2022-08-01T13:14:02;101979.72;;;24.62;53.78
69153;BME280;56261;51.580;4.578;2022-08-01T13:16:27;101966.06;;;24.62;55.28
69153;BME280;56261;51.580;4.578;2022-08-01T13:18:54;101981.50;;;24.57;54.85
69153;BME280;56261;51.580;4.578;2022-08-01T13:24:06;101974.72;;;24.59;54.70
69153;BME280;56261;51.580;4.578;2022-08-01T13:26:50;101973.44;;;24.20;54.57
69153;BME280;56261;51.580;4.578;2022-08-01T13:29:36;101975.34;;;24.19;54.75
69153;BME280;56261;51.580;4.578;2022-08-01T13:32:20;101963.09;;;24.99;53.60